sensor_id;sensor_type;location;lat;lon;timestamp;temperature;humidity
48488;DHT22;34289;48.572;13.378;2024-02-16T00:10:28;2.70;99.90
48488;DHT22;34289;48.572;13.378;2024-02-16T00:12:54;2.70;99.90
48488;DHT22;34289;48.572;13.378;2024-02-16T00:22:38;2.60;99.90
48488;DHT22;34289;48.572;13.378;2024-02-16T00:37:19;2.30;99.90
48488;DHT22;34289;48.572;13.378;2024-02-16T00:44:37;2.70;99.90
48488;DHT22;34289;48.572;13.378;2024-02-16T00:47:03;2.80;99.90
48488;DHT22;34289;48.572;13.378;2024-02-16T00:49:31;2.90;99.90
48488;DHT22;34289;48.572;13.378;2024-02-16T00:54:23;3.20;99.90
48488;DHT22;34289;48.572;13.378;2024-02-16T00:59:15;3.20;99.90
48488;DHT22;34289;48.572;13.378;2024-02-16T01:06:33;3.00;99.90
48488;DHT22;34289;48.572;13.378;2024-02-16T01:13:51;2.80;99.90
48488;DHT22;34289;48.572;13.378;2024-02-16T01:16:17;2.90;99.90
48488;DHT22;34289;48.572;13.378;2024-02-16T01:18:44;2.90;99.90
48488;DHT22;34289;48.572;13.378;2024-02-16T01:21:10;2.90;99.90
48488;DHT22;34289;48.572;13.378;2024-02-16T01:23:36;2.80;99.90
48488;DHT22;34289;48.572;13.378;2024-02-16T01:26:01;2.60;99.90
48488;DHT22;34289;48.572;13.378;2024-02-16T01:28:27;2.60;99.90
48488;DHT22;34289;48.572;13.378;2024-02-16T01:33:21;2.30;99.90
48488;DHT22;34289;48.572;13.378;2024-02-16T01:35:47;2.40;99.90
48488;DHT22;34289;48.572;13.378;2024-02-16T01:38:13;2.70;99.90
48488;DHT22;34289;48.572;13.378;2024-02-16T01:47:57;2.10;99.90
48488;DHT22;34289;48.572;13.378;2024-02-16T01:52:50;2.30;99.90
48488;DHT22;34289;48.572;13.378;2024-02-16T01:55:16;2.50;99.90
48488;DHT22;34289;48.572;13.378;2024-02-16T01:57:46;2.30;99.90
48488;DHT22;34289;48.572;13.378;2024-02-16T02:00:13;2.60;99.90
48488;DHT22;34289;48.572;13.378;2024-02-16T02:02:44;2.60;99.90
48488;DHT22;34289;48.572;13.378;2024-02-16T02:05:11;2.40;99.90
48488;DHT22;34289;48.572;13.378;2024-02-16T02:10:03;2.30;99.90
48488;DHT22;34289;48.572;13.378;2024-02-16T02:24:40;1.80;99.90
48488;DHT22;34289;48.572;13.378;2024-02-16T02:27:06;2.10;99.90
48488;DHT22;34289;48.572;13.378;2024-02-16T02:31:59;2.30;99.90
48488;DHT22;34289;48.572;13.378;2024-02-16T02:34:24;2.30;99.90
48488;DHT22;34289;48.572;13.378;2024-02-16T02:36:50;2.00;99.90
48488;DHT22;34289;48.572;13.378;2024-02-16T02:39:16;1.80;99.90
48488;DHT22;34289;48.572;13.378;2024-02-16T02:44:08;1.50;99.90
48488;DHT22;34289;48.572;13.378;2024-02-16T02:46:35;1.90;99.90
48488;DHT22;34289;48.572;13.378;2024-02-16T02:49:00;1.60;99.90
48488;DHT22;34289;48.572;13.378;2024-02-16T02:53:53;1.80;99.90
48488;DHT22;34289;48.572;13.378;2024-02-16T02:56:18;1.80;99.90
48488;DHT22;34289;48.572;13.378;2024-02-16T02:58:44;1.90;99.90
48488;DHT22;34289;48.572;13.378;2024-02-16T03:06:02;2.10;99.90
48488;DHT22;34289;48.572;13.378;2024-02-16T03:08:28;2.10;99.90
48488;DHT22;34289;48.572;13.378;2024-02-16T03:10:54;2.40;99.90
48488;DHT22;34289;48.572;13.378;2024-02-16T03:20:38;1.90;99.90
48488;DHT22;34289;48.572;13.378;2024-02-16T03:23:04;2.00;99.90
48488;DHT22;34289;48.572;13.378;2024-02-16T03:32:51;1.50;99.90
48488;DHT22;34289;48.572;13.378;2024-02-16T03:42:38;2.10;99.90
48488;DHT22;34289;48.572;13.378;2024-02-16T03:45:04;1.90;99.90
48488;DHT22;34289;48.572;13.378;2024-02-16T03:54:49;2.40;99.90
48488;DHT22;34289;48.572;13.378;2024-02-16T03:57:16;2.10;99.90
48488;DHT22;34289;48.572;13.378;2024-02-16T03:59:45;2.20;99.90
48488;DHT22;34289;48.572;13.378;2024-02-16T04:02:11;1.90;99.90
48488;DHT22;34289;48.572;13.378;2024-02-16T04:04:39;2.00;99.90
48488;DHT22;34289;48.572;13.378;2024-02-16T04:09:34;1.80;99.90
48488;DHT22;34289;48.572;13.378;2024-02-16T04:12:00;1.40;99.90
48488;DHT22;34289;48.572;13.378;2024-02-16T04:21:45;1.70;99.90
48488;DHT22;34289;48.572;13.378;2024-02-16T04:26:37;1.90;99.90
48488;DHT22;34289;48.572;13.378;2024-02-16T04:29:03;1.80;99.90
48488;DHT22;34289;48.572;13.378;2024-02-16T04:31:29;1.50;99.90
48488;DHT22;34289;48.572;13.378;2024-02-16T04:33:55;1.70;99.90
48488;DHT22;34289;48.572;13.378;2024-02-16T04:50:57;1.40;99.90
48488;DHT22;34289;48.572;13.378;2024-02-16T05:00:41;1.60;99.90
48488;DHT22;34289;48.572;13.378;2024-02-16T05:07:59;1.60;99.90
48488;DHT22;34289;48.572;13.378;2024-02-16T05:17:47;1.50;99.90
48488;DHT22;34289;48.572;13.378;2024-02-16T05:22:46;1.70;99.90
48488;DHT22;34289;48.572;13.378;2024-02-16T05:25:15;1.80;99.90
48488;DHT22;34289;48.572;13.378;2024-02-16T05:27:43;1.90;99.90
48488;DHT22;34289;48.572;13.378;2024-02-16T05:30:10;1.90;99.90
48488;DHT22;34289;48.572;13.378;2024-02-16T05:32:38;1.60;99.90
48488;DHT22;34289;48.572;13.378;2024-02-16T05:35:05;2.20;99.90
48488;DHT22;34289;48.572;13.378;2024-02-16T05:37:47;1.70;99.90
48488;DHT22;34289;48.572;13.378;2024-02-16T05:40:15;2.10;99.90
48488;DHT22;34289;48.572;13.378;2024-02-16T05:42:55;1.60;99.90
48488;DHT22;34289;48.572;13.378;2024-02-16T05:45:24;1.30;99.90
48488;DHT22;34289;48.572;13.378;2024-02-16T05:50:20;2.10;99.90
48488;DHT22;34289;48.572;13.378;2024-02-16T05:55:12;1.50;99.90
48488;DHT22;34289;48.572;13.378;2024-02-16T05:57:38;2.10;99.90
48488;DHT22;34289;48.572;13.378;2024-02-16T06:00:05;1.40;99.90
48488;DHT22;34289;48.572;13.378;2024-02-16T06:02:32;2.00;99.90
48488;DHT22;34289;48.572;13.378;2024-02-16T06:05:01;1.80;99.90
48488;DHT22;34289;48.572;13.378;2024-02-16T06:09:57;1.60;99.90
48488;DHT22;34289;48.572;13.378;2024-02-16T06:12:23;1.60;99.90
48488;DHT22;34289;48.572;13.378;2024-02-16T06:14:49;1.40;99.90
48488;DHT22;34289;48.572;13.378;2024-02-16T06:17:16;1.40;99.90
48488;DHT22;34289;48.572;13.378;2024-02-16T06:19:42;0.80;99.90
48488;DHT22;34289;48.572;13.378;2024-02-16T06:34:19;1.40;99.90
48488;DHT22;34289;48.572;13.378;2024-02-16T06:36:45;2.10;99.90
48488;DHT22;34289;48.572;13.378;2024-02-16T06:39:11;1.90;99.90
48488;DHT22;34289;48.572;13.378;2024-02-16T06:41:45;2.40;99.90
48488;DHT22;34289;48.572;13.378;2024-02-16T06:44:11;2.20;99.90
48488;DHT22;34289;48.572;13.378;2024-02-16T06:46:37;2.20;99.90
48488;DHT22;34289;48.572;13.378;2024-02-16T06:49:03;2.20;99.90
48488;DHT22;34289;48.572;13.378;2024-02-16T06:51:29;2.00;99.90
48488;DHT22;34289;48.572;13.378;2024-02-16T06:53:55;2.00;99.90
48488;DHT22;34289;48.572;13.378;2024-02-16T06:56:21;2.20;99.90
48488;DHT22;34289;48.572;13.378;2024-02-16T06:58:47;2.30;99.90
48488;DHT22;34289;48.572;13.378;2024-02-16T07:01:13;2.00;99.90
48488;DHT22;34289;48.572;13.378;2024-02-16T07:03:40;2.50;99.90
48488;DHT22;34289;48.572;13.378;2024-02-16T07:08:36;2.30;99.90
48488;DHT22;34289;48.572;13.378;2024-02-16T07:11:02;2.70;99.90
48488;DHT22;34289;48.572;13.378;2024-02-16T07:23:13;2.40;99.90
48488;DHT22;34289;48.572;13.378;2024-02-16T07:25:41;4.30;99.90
48488;DHT22;34289;48.572;13.378;2024-02-16T07:30:33;3.50;99.90
48488;DHT22;34289;48.572;13.378;2024-02-16T07:32:59;3.70;99.90
48488;DHT22;34289;48.572;13.378;2024-02-16T07:40:20;6.60;99.90
48488;DHT22;34289;48.572;13.378;2024-02-16T07:42:46;7.30;99.90
48488;DHT22;34289;48.572;13.378;2024-02-16T07:47:41;10.40;99.90
48488;DHT22;34289;48.572;13.378;2024-02-16T07:50:07;12.40;99.90
48488;DHT22;34289;48.572;13.378;2024-02-16T07:52:33;13.50;99.90
48488;DHT22;34289;48.572;13.378;2024-02-16T07:54:59;13.80;99.90
48488;DHT22;34289;48.572;13.378;2024-02-16T07:57:24;15.20;99.90
48488;DHT22;34289;48.572;13.378;2024-02-16T07:59:50;16.10;99.90
48488;DHT22;34289;48.572;13.378;2024-02-16T08:02:16;16.10;99.90
48488;DHT22;34289;48.572;13.378;2024-02-16T08:04:47;16.90;99.90
48488;DHT22;34289;48.572;13.378;2024-02-16T08:07:13;17.10;99.70
48488;DHT22;34289;48.572;13.378;2024-02-16T08:09:38;16.90;99.90
48488;DHT22;34289;48.572;13.378;2024-02-16T08:12:05;17.20;99.90
48488;DHT22;34289;48.572;13.378;2024-02-16T08:14:33;18.80;99.10
48488;DHT22;34289;48.572;13.378;2024-02-16T08:17:02;18.50;98.50
48488;DHT22;34289;48.572;13.378;2024-02-16T08:19:32;16.00;99.90
48488;DHT22;34289;48.572;13.378;2024-02-16T08:22:02;12.50;99.90
48488;DHT22;34289;48.572;13.378;2024-02-16T08:24:28;11.40;99.90
48488;DHT22;34289;48.572;13.378;2024-02-16T08:26:55;10.90;99.90
48488;DHT22;34289;48.572;13.378;2024-02-16T08:29:21;10.00;99.90
48488;DHT22;34289;48.572;13.378;2024-02-16T08:31:50;9.40;99.90
48488;DHT22;34289;48.572;13.378;2024-02-16T08:36:46;9.50;99.90
48488;DHT22;34289;48.572;13.378;2024-02-16T08:39:13;9.50;99.90
48488;DHT22;34289;48.572;13.378;2024-02-16T08:41:39;9.90;99.90
48488;DHT22;34289;48.572;13.378;2024-02-16T08:44:06;12.10;99.90
48488;DHT22;34289;48.572;13.378;2024-02-16T08:46:36;15.00;99.90
48488;DHT22;34289;48.572;13.378;2024-02-16T08:49:02;15.10;99.90
48488;DHT22;34289;48.572;13.378;2024-02-16T08:51:28;17.20;99.90
48488;DHT22;34289;48.572;13.378;2024-02-16T08:53:54;18.40;99.90
48488;DHT22;34289;48.572;13.378;2024-02-16T08:56:20;17.80;99.90
48488;DHT22;34289;48.572;13.378;2024-02-16T08:58:46;18.20;99.90
48488;DHT22;34289;48.572;13.378;2024-02-16T09:01:11;18.70;99.90
48488;DHT22;34289;48.572;13.378;2024-02-16T09:03:37;18.70;99.90
48488;DHT22;34289;48.572;13.378;2024-02-16T09:06:05;20.20;99.40
48488;DHT22;34289;48.572;13.378;2024-02-16T09:08:31;21.20;97.50
48488;DHT22;34289;48.572;13.378;2024-02-16T09:10:59;21.70;97.00
48488;DHT22;34289;48.572;13.378;2024-02-16T09:13:25;22.50;95.80
48488;DHT22;34289;48.572;13.378;2024-02-16T09:15:50;22.40;95.20
48488;DHT22;34289;48.572;13.378;2024-02-16T09:18:17;22.00;95.70
48488;DHT22;34289;48.572;13.378;2024-02-16T09:20:43;21.90;95.60
48488;DHT22;34289;48.572;13.378;2024-02-16T09:23:08;23.10;97.10
48488;DHT22;34289;48.572;13.378;2024-02-16T09:25:35;23.00;94.40
48488;DHT22;34289;48.572;13.378;2024-02-16T09:28:01;22.60;94.70
48488;DHT22;34289;48.572;13.378;2024-02-16T09:30:27;23.10;94.20
48488;DHT22;34289;48.572;13.378;2024-02-16T09:32:53;23.30;94.00
48488;DHT22;34289;48.572;13.378;2024-02-16T09:35:19;24.10;93.20
48488;DHT22;34289;48.572;13.378;2024-02-16T09:37:45;23.60;93.10
48488;DHT22;34289;48.572;13.378;2024-02-16T09:40:12;23.50;93.40
48488;DHT22;34289;48.572;13.378;2024-02-16T09:42:38;21.90;94.20
48488;DHT22;34289;48.572;13.378;2024-02-16T09:45:06;21.10;95.70
48488;DHT22;34289;48.572;13.378;2024-02-16T09:47:33;21.90;95.40
48488;DHT22;34289;48.572;13.378;2024-02-16T09:50:00;23.00;93.90
48488;DHT22;34289;48.572;13.378;2024-02-16T09:52:26;23.00;93.50
48488;DHT22;34289;48.572;13.378;2024-02-16T09:54:52;22.60;94.20
48488;DHT22;34289;48.572;13.378;2024-02-16T09:57:18;22.20;94.30
48488;DHT22;34289;48.572;13.378;2024-02-16T09:59:44;21.40;95.50
48488;DHT22;34289;48.572;13.378;2024-02-16T10:02:11;21.20;95.70
48488;DHT22;34289;48.572;13.378;2024-02-16T10:04:36;21.30;95.70
48488;DHT22;34289;48.572;13.378;2024-02-16T10:07:02;21.90;95.40
48488;DHT22;34289;48.572;13.378;2024-02-16T10:09:29;23.00;94.30
48488;DHT22;34289;48.572;13.378;2024-02-16T10:11:55;24.00;93.90
48488;DHT22;34289;48.572;13.378;2024-02-16T10:14:20;24.60;92.70
48488;DHT22;34289;48.572;13.378;2024-02-16T10:17:03;23.90;93.00
48488;DHT22;34289;48.572;13.378;2024-02-16T10:19:29;23.50;94.00
48488;DHT22;34289;48.572;13.378;2024-02-16T10:22:11;23.60;93.70
48488;DHT22;34289;48.572;13.378;2024-02-16T10:24:38;23.10;93.70
48488;DHT22;34289;48.572;13.378;2024-02-16T10:27:16;22.60;93.70
48488;DHT22;34289;48.572;13.378;2024-02-16T10:29:44;21.90;94.60
48488;DHT22;34289;48.572;13.378;2024-02-16T10:32:12;21.30;94.90
48488;DHT22;34289;48.572;13.378;2024-02-16T10:34:38;20.40;95.70
48488;DHT22;34289;48.572;13.378;2024-02-16T10:37:06;19.90;95.90
48488;DHT22;34289;48.572;13.378;2024-02-16T10:39:32;19.00;96.90
48488;DHT22;34289;48.572;13.378;2024-02-16T10:42:00;17.80;99.50
48488;DHT22;34289;48.572;13.378;2024-02-16T10:44:28;17.50;99.50
48488;DHT22;34289;48.572;13.378;2024-02-16T10:46:55;17.30;99.90
48488;DHT22;34289;48.572;13.378;2024-02-16T10:49:24;17.10;99.90
48488;DHT22;34289;48.572;13.378;2024-02-16T10:51:53;17.00;99.90
48488;DHT22;34289;48.572;13.378;2024-02-16T10:54:23;17.70;99.90
48488;DHT22;34289;48.572;13.378;2024-02-16T10:56:53;18.00;99.50
48488;DHT22;34289;48.572;13.378;2024-02-16T10:59:20;16.70;99.90
48488;DHT22;34289;48.572;13.378;2024-02-16T11:01:45;15.80;99.90
48488;DHT22;34289;48.572;13.378;2024-02-16T11:04:16;15.90;99.90
48488;DHT22;34289;48.572;13.378;2024-02-16T11:09:27;17.00;99.90
48488;DHT22;34289;48.572;13.378;2024-02-16T11:11:54;17.00;99.90
48488;DHT22;34289;48.572;13.378;2024-02-16T11:14:22;16.50;99.90
48488;DHT22;34289;48.572;13.378;2024-02-16T11:16:49;16.40;99.90
48488;DHT22;34289;48.572;13.378;2024-02-16T11:19:14;15.50;99.90
48488;DHT22;34289;48.572;13.378;2024-02-16T11:21:58;15.20;99.90
48488;DHT22;34289;48.572;13.378;2024-02-16T11:24:34;15.00;99.90
48488;DHT22;34289;48.572;13.378;2024-02-16T11:27:07;14.80;99.90
48488;DHT22;34289;48.572;13.378;2024-02-16T11:29:35;15.40;99.90
48488;DHT22;34289;48.572;13.378;2024-02-16T11:32:02;15.40;99.90
48488;DHT22;34289;48.572;13.378;2024-02-16T11:34:28;15.50;99.90
48488;DHT22;34289;48.572;13.378;2024-02-16T11:36:58;15.60;99.90
48488;DHT22;34289;48.572;13.378;2024-02-16T11:39:24;15.60;99.90
48488;DHT22;34289;48.572;13.378;2024-02-16T11:42:23;14.90;99.90
48488;DHT22;34289;48.572;13.378;2024-02-16T11:44:53;15.00;99.90
48488;DHT22;34289;48.572;13.378;2024-02-16T11:47:20;14.60;99.90
48488;DHT22;34289;48.572;13.378;2024-02-16T11:50:06;15.00;99.90
48488;DHT22;34289;48.572;13.378;2024-02-16T11:52:33;15.30;99.90
48488;DHT22;34289;48.572;13.378;2024-02-16T11:54:59;15.30;99.90
48488;DHT22;34289;48.572;13.378;2024-02-16T11:57:29;15.20;99.90
48488;DHT22;34289;48.572;13.378;2024-02-16T11:59:55;15.20;99.90
48488;DHT22;34289;48.572;13.378;2024-02-16T12:02:24;14.80;99.90
48488;DHT22;34289;48.572;13.378;2024-02-16T12:04:58;14.00;99.90
48488;DHT22;34289;48.572;13.378;2024-02-16T12:07:26;14.70;99.90
48488;DHT22;34289;48.572;13.378;2024-02-16T12:10:00;15.00;99.90
48488;DHT22;34289;48.572;13.378;2024-02-16T12:12:26;14.80;99.90
48488;DHT22;34289;48.572;13.378;2024-02-16T12:19:45;15.00;99.90
48488;DHT22;34289;48.572;13.378;2024-02-16T12:22:25;15.20;99.90
48488;DHT22;34289;48.572;13.378;2024-02-16T12:24:51;15.10;99.90
48488;DHT22;34289;48.572;13.378;2024-02-16T12:34:35;15.70;99.90
48488;DHT22;34289;48.572;13.378;2024-02-16T12:37:05;15.20;99.90
48488;DHT22;34289;48.572;13.378;2024-02-16T12:39:33;15.10;99.90
48488;DHT22;34289;48.572;13.378;2024-02-16T12:56:42;15.90;99.90
48488;DHT22;34289;48.572;13.378;2024-02-16T12:59:10;16.20;99.90
48488;DHT22;34289;48.572;13.378;2024-02-16T13:01:35;15.80;99.90
48488;DHT22;34289;48.572;13.378;2024-02-16T13:25:56;15.70;99.90
48488;DHT22;34289;48.572;13.378;2024-02-16T13:28:22;15.50;99.90
48488;DHT22;34289;48.572;13.378;2024-02-16T13:35:42;16.00;99.90
48488;DHT22;34289;48.572;13.378;2024-02-16T13:38:08;16.00;99.90
48488;DHT22;34289;48.572;13.378;2024-02-16T13:40:34;15.90;99.90
48488;DHT22;34289;48.572;13.378;2024-02-16T13:43:01;16.50;99.90
48488;DHT22;34289;48.572;13.378;2024-02-16T13:45:48;16.00;99.90
48488;DHT22;34289;48.572;13.378;2024-02-16T13:48:15;16.20;99.90
48488;DHT22;34289;48.572;13.378;2024-02-16T13:50:44;15.90;99.90
48488;DHT22;34289;48.572;13.378;2024-02-16T13:53:10;16.30;99.90
48488;DHT22;34289;48.572;13.378;2024-02-16T14:07:47;15.40;99.90
48488;DHT22;34289;48.572;13.378;2024-02-16T14:37:00;14.70;99.90
48488;DHT22;34289;48.572;13.378;2024-02-16T14:44:18;14.60;99.90
48488;DHT22;34289;48.572;13.378;2024-02-16T14:49:11;14.40;99.90
48488;DHT22;34289;48.572;13.378;2024-02-16T14:51:40;14.70;99.90
48488;DHT22;34289;48.572;13.378;2024-02-16T14:56:33;14.30;99.90
48488;DHT22;34289;48.572;13.378;2024-02-16T14:58:59;13.70;99.90
48488;DHT22;34289;48.572;13.378;2024-02-16T15:03:52;12.80;99.90
48488;DHT22;34289;48.572;13.378;2024-02-16T15:06:17;13.30;99.90
48488;DHT22;34289;48.572;13.378;2024-02-16T15:11:09;12.80;99.90
48488;DHT22;34289;48.572;13.378;2024-02-16T15:13:38;13.40;99.90
48488;DHT22;34289;48.572;13.378;2024-02-16T15:16:04;13.40;99.90
48488;DHT22;34289;48.572;13.378;2024-02-16T15:18:30;13.60;99.90
48488;DHT22;34289;48.572;13.378;2024-02-16T15:20:55;13.50;99.90
48488;DHT22;34289;48.572;13.378;2024-02-16T15:30:39;12.90;99.90
48488;DHT22;34289;48.572;13.378;2024-02-16T15:33:05;12.90;99.90
48488;DHT22;34289;48.572;13.378;2024-02-16T15:43:03;12.60;99.90
48488;DHT22;34289;48.572;13.378;2024-02-16T15:45:30;12.60;99.90
48488;DHT22;34289;48.572;13.378;2024-02-16T15:47:55;12.20;99.90
48488;DHT22;34289;48.572;13.378;2024-02-16T15:57:39;12.40;99.90
48488;DHT22;34289;48.572;13.378;2024-02-16T16:02:32;12.40;99.90
48488;DHT22;34289;48.572;13.378;2024-02-16T16:04:58;12.30;99.90
48488;DHT22;34289;48.572;13.378;2024-02-16T16:07:23;12.00;99.90
48488;DHT22;34289;48.572;13.378;2024-02-16T16:09:55;11.90;99.90
48488;DHT22;34289;48.572;13.378;2024-02-16T16:19:39;11.40;99.90
48488;DHT22;34289;48.572;13.378;2024-02-16T16:22:05;11.20;99.90
48488;DHT22;34289;48.572;13.378;2024-02-16T16:24:30;10.90;99.90
48488;DHT22;34289;48.572;13.378;2024-02-16T16:26:56;11.00;99.90
48488;DHT22;34289;48.572;13.378;2024-02-16T16:31:48;10.70;99.90
48488;DHT22;34289;48.572;13.378;2024-02-16T16:34:14;10.60;99.90
48488;DHT22;34289;48.572;13.378;2024-02-16T16:36:40;10.30;99.90
48488;DHT22;34289;48.572;13.378;2024-02-16T16:51:18;10.00;99.90
48488;DHT22;34289;48.572;13.378;2024-02-16T16:53:43;9.90;99.90
48488;DHT22;34289;48.572;13.378;2024-02-16T16:56:09;10.20;99.90
48488;DHT22;34289;48.572;13.378;2024-02-16T16:58:35;9.90;99.90
48488;DHT22;34289;48.572;13.378;2024-02-16T17:01:00;9.60;99.90
48488;DHT22;34289;48.572;13.378;2024-02-16T17:03:28;9.70;99.90
48488;DHT22;34289;48.572;13.378;2024-02-16T17:15:38;9.50;99.90
48488;DHT22;34289;48.572;13.378;2024-02-16T17:25:24;9.30;99.90
48488;DHT22;34289;48.572;13.378;2024-02-16T17:27:50;9.20;99.90
48488;DHT22;34289;48.572;13.378;2024-02-16T17:30:16;9.20;99.90
48488;DHT22;34289;48.572;13.378;2024-02-16T17:37:37;9.00;99.90
48488;DHT22;34289;48.572;13.378;2024-02-16T17:42:29;8.80;99.90
48488;DHT22;34289;48.572;13.378;2024-02-16T17:44:55;9.00;99.90
48488;DHT22;34289;48.572;13.378;2024-02-16T17:57:06;8.50;99.90
48488;DHT22;34289;48.572;13.378;2024-02-16T17:59:32;8.70;99.90
48488;DHT22;34289;48.572;13.378;2024-02-16T18:01:57;8.50;99.90
48488;DHT22;34289;48.572;13.378;2024-02-16T18:04:23;8.50;99.90
48488;DHT22;34289;48.572;13.378;2024-02-16T18:06:52;8.50;99.90
48488;DHT22;34289;48.572;13.378;2024-02-16T18:11:43;9.10;99.90
48488;DHT22;34289;48.572;13.378;2024-02-16T18:33:39;8.90;99.90
48488;DHT22;34289;48.572;13.378;2024-02-16T18:38:32;8.40;99.90
48488;DHT22;34289;48.572;13.378;2024-02-16T18:45:51;8.20;99.90
48488;DHT22;34289;48.572;13.378;2024-02-16T18:50:46;8.60;99.90
48488;DHT22;34289;48.572;13.378;2024-02-16T18:53:12;8.10;99.90
48488;DHT22;34289;48.572;13.378;2024-02-16T19:00:37;7.90;99.90
48488;DHT22;34289;48.572;13.378;2024-02-16T19:03:03;8.40;99.90
48488;DHT22;34289;48.572;13.378;2024-02-16T19:05:28;8.20;99.90
48488;DHT22;34289;48.572;13.378;2024-02-16T19:07:54;8.50;99.90
48488;DHT22;34289;48.572;13.378;2024-02-16T19:12:46;8.60;99.90
48488;DHT22;34289;48.572;13.378;2024-02-16T19:15:12;8.50;99.90
48488;DHT22;34289;48.572;13.378;2024-02-16T19:22:30;8.20;99.90
48488;DHT22;34289;48.572;13.378;2024-02-16T19:27:22;8.20;99.90
48488;DHT22;34289;48.572;13.378;2024-02-16T19:29:48;8.60;99.90
48488;DHT22;34289;48.572;13.378;2024-02-16T19:37:06;8.00;99.90
48488;DHT22;34289;48.572;13.378;2024-02-16T19:41:58;7.80;99.90
48488;DHT22;34289;48.572;13.378;2024-02-16T19:44:24;7.80;99.90
48488;DHT22;34289;48.572;13.378;2024-02-16T19:46:51;7.80;99.90
48488;DHT22;34289;48.572;13.378;2024-02-16T19:51:43;8.20;99.90
48488;DHT22;34289;48.572;13.378;2024-02-16T19:56:35;8.10;99.90
48488;DHT22;34289;48.572;13.378;2024-02-16T19:59:00;7.90;99.90
48488;DHT22;34289;48.572;13.378;2024-02-16T20:11:10;7.40;99.90
48488;DHT22;34289;48.572;13.378;2024-02-16T20:13:37;7.70;99.90
48488;DHT22;34289;48.572;13.378;2024-02-16T20:16:04;7.80;99.90
48488;DHT22;34289;48.572;13.378;2024-02-16T20:20:57;7.80;99.90
48488;DHT22;34289;48.572;13.378;2024-02-16T20:23:23;8.00;99.90
48488;DHT22;34289;48.572;13.378;2024-02-16T20:28:15;7.90;99.90
48488;DHT22;34289;48.572;13.378;2024-02-16T20:35:34;7.70;99.90
48488;DHT22;34289;48.572;13.378;2024-02-16T20:38:00;7.80;99.90
48488;DHT22;34289;48.572;13.378;2024-02-16T20:40:26;7.70;99.90
48488;DHT22;34289;48.572;13.378;2024-02-16T20:42:52;7.70;99.90
48488;DHT22;34289;48.572;13.378;2024-02-16T20:45:18;7.40;99.90
48488;DHT22;34289;48.572;13.378;2024-02-16T21:19:24;6.40;99.90
48488;DHT22;34289;48.572;13.378;2024-02-16T21:21:50;6.40;99.90
48488;DHT22;34289;48.572;13.378;2024-02-16T21:24:15;6.30;99.90
48488;DHT22;34289;48.572;13.378;2024-02-16T21:36:30;6.40;99.90
48488;DHT22;34289;48.572;13.378;2024-02-16T21:41:22;6.30;99.90
48488;DHT22;34289;48.572;13.378;2024-02-16T21:43:48;6.20;99.90
48488;DHT22;34289;48.572;13.378;2024-02-16T21:46:30;6.20;99.90
48488;DHT22;34289;48.572;13.378;2024-02-16T21:49:03;5.80;99.90
48488;DHT22;34289;48.572;13.378;2024-02-16T21:51:29;6.40;99.90
48488;DHT22;34289;48.572;13.378;2024-02-16T21:58:48;5.70;99.90
48488;DHT22;34289;48.572;13.378;2024-02-16T22:01:16;5.80;99.90
48488;DHT22;34289;48.572;13.378;2024-02-16T22:03:43;5.90;99.90
48488;DHT22;34289;48.572;13.378;2024-02-16T22:06:09;5.60;99.90
48488;DHT22;34289;48.572;13.378;2024-02-16T22:08:35;5.70;99.90
48488;DHT22;34289;48.572;13.378;2024-02-16T22:11:01;5.60;99.90
48488;DHT22;34289;48.572;13.378;2024-02-16T22:15:54;5.60;99.90
48488;DHT22;34289;48.572;13.378;2024-02-16T22:20:47;6.00;99.90
48488;DHT22;34289;48.572;13.378;2024-02-16T22:25:38;6.20;99.90
48488;DHT22;34289;48.572;13.378;2024-02-16T22:28:05;5.60;99.90
48488;DHT22;34289;48.572;13.378;2024-02-16T22:30:30;6.00;99.90
48488;DHT22;34289;48.572;13.378;2024-02-16T22:35:23;5.90;99.90
48488;DHT22;34289;48.572;13.378;2024-02-16T22:37:49;6.40;99.90
48488;DHT22;34289;48.572;13.378;2024-02-16T22:40:15;6.30;99.90
48488;DHT22;34289;48.572;13.378;2024-02-16T22:47:34;6.70;99.90
48488;DHT22;34289;48.572;13.378;2024-02-16T22:57:18;6.00;99.90
48488;DHT22;34289;48.572;13.378;2024-02-16T22:59:43;6.00;99.90
48488;DHT22;34289;48.572;13.378;2024-02-16T23:02:09;6.20;99.90
48488;DHT22;34289;48.572;13.378;2024-02-16T23:04:35;6.10;99.90
48488;DHT22;34289;48.572;13.378;2024-02-16T23:07:01;6.90;99.90
48488;DHT22;34289;48.572;13.378;2024-02-16T23:09:30;6.40;99.90
48488;DHT22;34289;48.572;13.378;2024-02-16T23:11:56;6.50;99.90
48488;DHT22;34289;48.572;13.378;2024-02-16T23:14:22;6.10;99.90
48488;DHT22;34289;48.572;13.378;2024-02-16T23:16:47;6.50;99.90
48488;DHT22;34289;48.572;13.378;2024-02-16T23:19:13;6.50;99.90
48488;DHT22;34289;48.572;13.378;2024-02-16T23:24:05;6.80;99.90
48488;DHT22;34289;48.572;13.378;2024-02-16T23:28:58;7.10;99.90
48488;DHT22;34289;48.572;13.378;2024-02-16T23:31:23;6.80;99.90
48488;DHT22;34289;48.572;13.378;2024-02-16T23:36:15;6.60;99.90
48488;DHT22;34289;48.572;13.378;2024-02-16T23:38:43;6.90;99.90
48488;DHT22;34289;48.572;13.378;2024-02-16T23:46:01;6.90;99.90
48488;DHT22;34289;48.572;13.378;2024-02-16T23:50:55;7.50;99.90
48488;DHT22;34289;48.572;13.378;2024-02-16T23:53:21;7.30;99.90
